createdAt,value
2019-01-24T00:00:04.335Z,-4.01
2019-01-24T00:01:09.122Z,-4.05
2019-01-24T00:02:12.135Z,-4.17
2019-01-24T00:03:22.222Z,-4.23
2019-01-24T00:04:25.210Z,-4.19
2019-01-24T00:05:30.450Z,-4.21
2019-01-24T00:06:36.363Z,-4.21
2019-01-24T00:07:43.916Z,-4.15
2019-01-24T00:08:47.359Z,-4.26
2019-01-24T00:09:50.555Z,-4.31
2019-01-24T00:10:55.538Z,-4.31
2019-01-24T00:11:58.452Z,-4.27
2019-01-24T00:13:01.447Z,-4.33
2019-01-24T00:14:04.661Z,-4.47
2019-01-24T00:15:07.539Z,-4.48
2019-01-24T00:16:10.505Z,-4.48
2019-01-24T00:17:19.453Z,-4.50
2019-01-24T00:18:25.442Z,-4.53
2019-01-24T00:19:28.415Z,-4.53
2019-01-24T00:20:34.450Z,-4.59
2019-01-24T00:21:40.593Z,-4.59
2019-01-24T00:22:43.487Z,-4.55
2019-01-24T00:23:46.433Z,-4.56
2019-01-24T00:24:49.281Z,-4.51
2019-01-24T00:25:54.428Z,-4.38
2019-01-24T00:26:57.594Z,-4.38
2019-01-24T00:28:00.553Z,-4.22
2019-01-24T00:29:03.447Z,-4.19
2019-01-24T00:30:06.433Z,-4.15
2019-01-24T00:31:11.296Z,-4.15
2019-01-24T00:32:13.954Z,-4.23
2019-01-24T00:33:16.826Z,-4.09
2019-01-24T00:34:23.302Z,-4.00
2019-01-24T00:35:24.690Z,-4.05
2019-01-24T00:36:29.125Z,-4.10
2019-01-24T00:37:33.901Z,-4.10
2019-01-24T00:38:43.083Z,-4.14
2019-01-24T00:39:45.991Z,-4.13
2019-01-24T00:40:48.933Z,-4.14
2019-01-24T00:41:51.832Z,-4.14
2019-01-24T00:42:55.421Z,-4.11
2019-01-24T00:43:58.633Z,-4.11
2019-01-24T00:45:01.824Z,-4.04
2019-01-24T00:46:04.896Z,-4.03
2019-01-24T00:47:07.946Z,-4.03
2019-01-24T00:48:10.923Z,-4.02
2019-01-24T00:49:13.921Z,-4.02
2019-01-24T00:50:16.769Z,-4.11
2019-01-24T00:51:20.155Z,-4.18
2019-01-24T00:52:23.195Z,-4.12
2019-01-24T00:53:26.457Z,-4.12
2019-01-24T00:54:29.596Z,-4.12
2019-01-24T00:55:32.611Z,-4.12
2019-01-24T00:56:35.537Z,-4.11
2019-01-24T00:57:39.445Z,-4.10
2019-01-24T00:58:42.405Z,-4.12
2019-01-24T00:59:45.598Z,-4.07
2019-01-24T01:00:48.504Z,-4.16
2019-01-24T01:01:51.396Z,-4.13
2019-01-24T01:02:54.357Z,-4.13
2019-01-24T01:03:57.536Z,-4.10
2019-01-24T01:05:00.493Z,-4.11
2019-01-24T01:06:03.352Z,-4.09
2019-01-24T01:07:06.214Z,-4.03
2019-01-24T01:08:09.113Z,-3.99
2019-01-24T01:09:12.082Z,-3.98
2019-01-24T01:10:16.017Z,-3.98
2019-01-24T01:11:19.334Z,-4.18
2019-01-24T01:12:22.309Z,-4.18
2019-01-24T01:13:25.200Z,-4.13
2019-01-24T01:14:28.140Z,-4.17
2019-01-24T01:15:31.106Z,-4.14
2019-01-24T01:16:36.433Z,-4.09
2019-01-24T01:17:39.796Z,-4.04
2019-01-24T01:18:42.684Z,-4.06
2019-01-24T01:19:45.595Z,-4.06
2019-01-24T01:20:48.576Z,-4.06
2019-01-24T01:21:51.763Z,-4.01
2019-01-24T01:22:54.648Z,-4.02
2019-01-24T01:23:57.533Z,-4.05
2019-01-24T01:25:00.472Z,-4.07
2019-01-24T01:26:03.672Z,-4.02
2019-01-24T01:27:06.564Z,-4.02
2019-01-24T01:28:10.320Z,-4.02
2019-01-24T01:29:13.209Z,-4.01
2019-01-24T01:30:16.574Z,-4.01
2019-01-24T01:31:19.477Z,-3.97
2019-01-24T01:32:22.394Z,-3.97
2019-01-24T01:33:25.263Z,-3.92
2019-01-24T01:34:28.454Z,-3.85
2019-01-24T01:35:31.805Z,-3.84
2019-01-24T01:36:34.679Z,-3.84
2019-01-24T01:37:37.613Z,-3.85
2019-01-24T01:38:40.521Z,-3.91
2019-01-24T01:39:43.403Z,-3.96
2019-01-24T01:40:46.682Z,-3.96
2019-01-24T01:41:49.572Z,-4.10
2019-01-24T01:42:52.468Z,-4.08
2019-01-24T01:43:55.375Z,-4.01
2019-01-24T01:44:58.244Z,-3.93
2019-01-24T01:46:01.178Z,-3.93
2019-01-24T01:47:04.446Z,-3.88
2019-01-24T01:48:07.800Z,-3.88
2019-01-24T01:49:10.715Z,-4.05
2019-01-24T01:50:13.567Z,-4.02
2019-01-24T01:51:16.815Z,-3.99
2019-01-24T01:52:19.750Z,-3.98
2019-01-24T01:53:23.389Z,-3.96
2019-01-24T01:54:26.759Z,-3.93
2019-01-24T01:55:29.666Z,-3.95
2019-01-24T01:56:32.549Z,-3.95
2019-01-24T01:57:35.505Z,-3.95
2019-01-24T01:58:38.436Z,-3.99
2019-01-24T01:59:41.296Z,-3.98
2019-01-24T02:00:44.210Z,-4.07
2019-01-24T02:01:47.099Z,-4.06
2019-01-24T02:02:50.051Z,-4.00
2019-01-24T02:03:52.944Z,-4.00
2019-01-24T02:04:56.108Z,-4.01
2019-01-24T02:05:59.037Z,-4.03
2019-01-24T02:07:02.083Z,-4.09
2019-01-24T02:08:05.639Z,-4.09
2019-01-24T02:09:08.605Z,-4.09
2019-01-24T02:10:11.495Z,-4.04
2019-01-24T02:11:15.127Z,-4.04
2019-01-24T02:12:18.025Z,-4.00
2019-01-24T02:13:20.934Z,-3.96
2019-01-24T02:14:23.912Z,-3.95
2019-01-24T02:15:26.806Z,-3.91
2019-01-24T02:16:29.718Z,-3.88
2019-01-24T02:17:34.194Z,-3.88
2019-01-24T02:18:37.074Z,-4.05
2019-01-24T02:19:40.065Z,-4.07
2019-01-24T02:20:43.439Z,-4.17
2019-01-24T02:21:46.336Z,-4.17
2019-01-24T02:22:49.711Z,-4.25
2019-01-24T02:23:54.286Z,-4.25
2019-01-24T02:24:57.239Z,-4.25
2019-01-24T02:26:00.154Z,-4.25
2019-01-24T02:27:03.043Z,-4.23
2019-01-24T02:28:06.071Z,-4.23
2019-01-24T02:29:08.989Z,-4.12
2019-01-24T02:30:11.862Z,-4.10
2019-01-24T02:31:14.731Z,-4.05
2019-01-24T02:32:17.698Z,-4.05
2019-01-24T02:33:20.680Z,-4.05
2019-01-24T02:34:23.565Z,-4.21
2019-01-24T02:35:26.752Z,-4.26
2019-01-24T02:36:29.633Z,-4.23
2019-01-24T02:37:33.900Z,-4.20
2019-01-24T02:38:36.886Z,-4.15
2019-01-24T02:39:39.768Z,-4.15
2019-01-24T02:40:42.668Z,-4.04
2019-01-24T02:41:45.867Z,-4.02
2019-01-24T02:42:49.283Z,-3.98
2019-01-24T02:43:52.658Z,-4.10
2019-01-24T02:44:55.595Z,-4.08
2019-01-24T02:45:58.492Z,-4.06
2019-01-24T02:47:01.494Z,-3.98
2019-01-24T02:48:04.941Z,-3.98
2019-01-24T02:49:07.854Z,-3.98
2019-01-24T02:50:10.724Z,-4.45
2019-01-24T02:51:13.608Z,-4.50
2019-01-24T02:52:16.522Z,-4.43
2019-01-24T02:53:19.476Z,-4.46
2019-01-24T02:54:23.162Z,-4.49
2019-01-24T02:55:26.453Z,-4.52
2019-01-24T02:56:29.400Z,-4.51
2019-01-24T02:57:32.350Z,-4.55
2019-01-24T02:58:35.254Z,-4.50
2019-01-24T02:59:38.216Z,-4.51
2019-01-24T03:00:44.349Z,-4.51
2019-01-24T03:01:47.258Z,-4.53
2019-01-24T03:02:50.123Z,-4.42
2019-01-24T03:03:53.107Z,-4.46
2019-01-24T03:04:57.126Z,-4.56
2019-01-24T03:06:00.110Z,-4.57
2019-01-24T03:07:03.002Z,-4.56
2019-01-24T03:08:05.890Z,-4.55
2019-01-24T03:09:08.916Z,-4.56
2019-01-24T03:10:11.917Z,-4.58
2019-01-24T03:11:14.836Z,-4.62
2019-01-24T03:12:18.032Z,-4.69
2019-01-24T03:13:21.386Z,-4.63
2019-01-24T03:14:24.359Z,-4.58
2019-01-24T03:15:29.756Z,-4.56
2019-01-24T03:16:36.698Z,-4.56
2019-01-24T03:17:37.650Z,-4.46
2019-01-24T03:18:40.857Z,-4.46
2019-01-24T03:19:43.852Z,-4.48
2019-01-24T03:20:46.870Z,-4.53
2019-01-24T03:21:49.785Z,-4.53
2019-01-24T03:22:52.684Z,-4.56
2019-01-24T03:23:55.533Z,-4.54
2019-01-24T03:24:58.742Z,-4.38
2019-01-24T03:26:03.911Z,-4.21
2019-01-24T03:27:06.795Z,-4.23
2019-01-24T03:28:09.781Z,-4.14
2019-01-24T03:29:12.717Z,-4.06
2019-01-24T03:30:15.780Z,-4.06
2019-01-24T03:31:19.093Z,-4.00
2019-01-24T03:32:24.412Z,-4.04
2019-01-24T03:33:27.379Z,-4.10
2019-01-24T03:34:30.549Z,-4.10
2019-01-24T03:35:33.734Z,-4.21
2019-01-24T03:36:36.911Z,-4.29
2019-01-24T03:37:41.740Z,-4.26
2019-01-24T03:38:44.655Z,-4.34
2019-01-24T03:39:47.538Z,-4.40
2019-01-24T03:40:50.531Z,-4.45
2019-01-24T03:41:53.414Z,-4.58
2019-01-24T03:42:56.265Z,-4.62
2019-01-24T03:43:59.445Z,-4.59
2019-01-24T03:45:02.364Z,-4.50
2019-01-24T03:46:05.781Z,-4.50
2019-01-24T03:47:08.681Z,-4.40
2019-01-24T03:48:12.280Z,-4.42
2019-01-24T03:49:15.624Z,-4.39
2019-01-24T03:50:18.818Z,-4.37
2019-01-24T03:51:21.902Z,-4.39
2019-01-24T03:52:24.771Z,-4.44
2019-01-24T03:53:27.741Z,-4.39
2019-01-24T03:54:30.637Z,-4.40
2019-01-24T03:55:33.545Z,-4.34
2019-01-24T03:56:36.704Z,-4.24
2019-01-24T03:57:39.692Z,-4.18
2019-01-24T03:58:42.580Z,-4.18
2019-01-24T03:59:45.485Z,-4.08
2019-01-24T04:00:48.404Z,-4.07
2019-01-24T04:01:51.356Z,-4.13
2019-01-24T04:02:58.232Z,-4.33
2019-01-24T04:04:04.155Z,-4.36
2019-01-24T04:05:11.754Z,-4.46
2019-01-24T04:06:11.622Z,-4.57
2019-01-24T04:07:14.975Z,-4.66
2019-01-24T04:08:17.951Z,-4.66
2019-01-24T04:09:21.167Z,-4.72
2019-01-24T04:10:24.510Z,-4.67
2019-01-24T04:11:27.407Z,-4.68
2019-01-24T04:12:30.302Z,-4.68
2019-01-24T04:13:33.288Z,-4.76
2019-01-24T04:14:36.164Z,-4.80
2019-01-24T04:15:39.434Z,-4.80
2019-01-24T04:16:42.760Z,-4.79
2019-01-24T04:17:45.673Z,-4.77
2019-01-24T04:18:48.581Z,-4.77
2019-01-24T04:19:51.643Z,-4.81
2019-01-24T04:20:54.530Z,-4.75
2019-01-24T04:21:57.689Z,-4.72
2019-01-24T04:23:00.554Z,-4.70
2019-01-24T04:24:03.485Z,-4.68
2019-01-24T04:25:06.694Z,-4.66
2019-01-24T04:26:09.607Z,-4.69
2019-01-24T04:27:12.600Z,-4.71
2019-01-24T04:28:15.797Z,-4.68
2019-01-24T04:29:18.666Z,-4.59
2019-01-24T04:30:25.366Z,-4.59
2019-01-24T04:31:28.440Z,-4.49
2019-01-24T04:32:31.519Z,-4.58
2019-01-24T04:33:34.577Z,-4.62
2019-01-24T04:34:38.089Z,-4.55
2019-01-24T04:35:41.149Z,-4.55
2019-01-24T04:36:44.705Z,-4.49
2019-01-24T04:37:47.680Z,-4.44
2019-01-24T04:38:56.175Z,-4.56
2019-01-24T04:39:58.771Z,-4.54
2019-01-24T04:41:01.980Z,-4.54
2019-01-24T04:42:05.347Z,-4.59
2019-01-24T04:43:08.755Z,-4.71
2019-01-24T04:44:11.717Z,-4.77
2019-01-24T04:45:15.709Z,-4.82
2019-01-24T04:46:18.683Z,-4.81
2019-01-24T04:47:21.585Z,-4.75
2019-01-24T04:48:24.520Z,-4.75
2019-01-24T04:49:27.623Z,-4.94
2019-01-24T04:50:31.244Z,-4.93
2019-01-24T04:51:34.147Z,-4.85
2019-01-24T04:52:37.168Z,-4.76
2019-01-24T04:53:40.820Z,-4.76
2019-01-24T04:54:44.036Z,-4.85
2019-01-24T04:55:49.038Z,-4.85
2019-01-24T04:56:51.919Z,-4.83
2019-01-24T04:57:55.070Z,-4.83
2019-01-24T04:58:58.158Z,-4.73
2019-01-24T05:00:01.386Z,-4.71
2019-01-24T05:01:04.350Z,-4.69
2019-01-24T05:02:08.740Z,-4.67
2019-01-24T05:03:11.630Z,-4.58
2019-01-24T05:04:14.610Z,-4.66
2019-01-24T05:05:17.507Z,-4.71
2019-01-24T05:06:20.725Z,-4.70
2019-01-24T05:07:23.754Z,-4.68
2019-01-24T05:08:26.707Z,-4.70
2019-01-24T05:09:29.650Z,-4.69
2019-01-24T05:10:32.531Z,-4.69
2019-01-24T05:11:35.504Z,-4.87
2019-01-24T05:12:38.716Z,-4.85
2019-01-24T05:13:41.640Z,-4.98
2019-01-24T05:14:44.609Z,-5.05
2019-01-24T05:15:47.516Z,-5.13
2019-01-24T05:16:50.482Z,-5.17
2019-01-24T05:17:53.679Z,-5.17
2019-01-24T05:18:59.635Z,-5.16
2019-01-24T05:20:02.601Z,-5.19
2019-01-24T05:21:05.499Z,-5.13
2019-01-24T05:22:08.391Z,-5.11
2019-01-24T05:23:11.291Z,-5.12
2019-01-24T05:24:14.540Z,-5.14
2019-01-24T05:25:19.079Z,-5.14
2019-01-24T05:26:28.075Z,-5.16
2019-01-24T05:27:30.973Z,-5.23
2019-01-24T05:28:33.976Z,-5.34
2019-01-24T05:29:36.910Z,-5.32
2019-01-24T05:30:40.115Z,-5.29
2019-01-24T05:31:43.063Z,-5.28
2019-01-24T05:32:45.987Z,-5.25
2019-01-24T05:33:50.375Z,-5.17
2019-01-24T05:34:53.327Z,-5.17
2019-01-24T05:35:56.232Z,-5.00
2019-01-24T05:37:00.026Z,-5.07
2019-01-24T05:38:03.105Z,-5.15
2019-01-24T05:39:08.211Z,-5.23
2019-01-24T05:40:11.135Z,-5.24
2019-01-24T05:41:14.035Z,-5.33
2019-01-24T05:42:17.026Z,-5.38
2019-01-24T05:43:21.123Z,-5.37
2019-01-24T05:44:24.149Z,-5.46
2019-01-24T05:45:27.371Z,-5.40
2019-01-24T05:46:33.001Z,-5.44
2019-01-24T05:47:35.898Z,-5.44
2019-01-24T05:48:39.141Z,-5.39
2019-01-24T05:49:44.801Z,-5.35
2019-01-24T05:50:47.692Z,-5.31
2019-01-24T05:51:50.596Z,-5.31
2019-01-24T05:52:53.926Z,-5.19
2019-01-24T05:53:56.858Z,-5.20
2019-01-24T05:55:00.094Z,-5.22
2019-01-24T05:56:03.166Z,-5.22
2019-01-24T05:57:06.536Z,-5.27
2019-01-24T05:58:10.846Z,-5.27
2019-01-24T05:59:13.748Z,-5.28
2019-01-24T06:00:19.775Z,-5.23
2019-01-24T06:01:23.223Z,-5.13
2019-01-24T06:02:26.226Z,-5.20
2019-01-24T06:03:29.110Z,-5.20
2019-01-24T06:04:32.015Z,-5.14
2019-01-24T06:05:41.578Z,-5.14
2019-01-24T06:06:39.464Z,-5.25
2019-01-24T06:07:45.882Z,-5.25
2019-01-24T06:08:48.809Z,-5.31
2019-01-24T06:09:51.697Z,-5.26
2019-01-24T06:10:56.731Z,-5.20
2019-01-24T06:12:00.544Z,-5.20
2019-01-24T06:13:03.501Z,-5.12
2019-01-24T06:14:06.807Z,-5.03
2019-01-24T06:15:09.685Z,-5.06
2019-01-24T06:16:12.555Z,-5.13
2019-01-24T06:17:15.435Z,-5.19
2019-01-24T06:18:18.902Z,-5.23
2019-01-24T06:19:25.129Z,-5.23
2019-01-24T06:20:30.046Z,-5.32
2019-01-24T06:21:34.313Z,-5.32
2019-01-24T06:22:37.502Z,-5.34
2019-01-24T06:23:40.397Z,-5.34
2019-01-24T06:24:43.366Z,-5.39
2019-01-24T06:25:46.278Z,-5.36
2019-01-24T06:26:49.613Z,-5.38
2019-01-24T06:27:52.564Z,-5.38
2019-01-24T06:28:58.930Z,-5.38
2019-01-24T06:30:02.120Z,-5.47
2019-01-24T06:43:52.098Z,-5.04
2019-01-24T06:44:54.991Z,-5.02
2019-01-24T06:45:57.891Z,-5.02
2019-01-24T06:47:00.761Z,-4.97
2019-01-24T06:48:04.159Z,-4.90
2019-01-24T06:49:08.930Z,-4.92
2019-01-24T06:50:11.898Z,-4.96
2019-01-24T06:51:15.918Z,-4.97
2019-01-24T06:52:18.817Z,-4.97
2019-01-24T06:53:22.227Z,-4.84
2019-01-24T06:54:25.202Z,-4.76
2019-01-24T06:55:28.577Z,-4.76
2019-01-24T06:56:31.552Z,-4.78
2019-01-24T06:57:34.507Z,-4.81
2019-01-24T06:58:37.428Z,-4.80
2019-01-24T06:59:40.440Z,-5.06
2019-01-24T07:00:43.594Z,-5.06
2019-01-24T07:01:47.000Z,-5.10
2019-01-24T07:02:50.018Z,-5.10
2019-01-24T07:03:53.001Z,-5.09
2019-01-24T07:04:55.937Z,-5.02
2019-01-24T07:06:01.699Z,-5.02
2019-01-24T07:07:04.759Z,-4.90
2019-01-24T07:08:13.151Z,-4.90
2019-01-24T07:09:16.111Z,-4.96
2019-01-24T07:10:20.868Z,-4.97
2019-01-24T07:11:23.761Z,-4.97
2019-01-24T07:12:27.684Z,-4.86
2019-01-24T07:13:34.466Z,-4.88
2019-01-24T07:14:40.653Z,-4.83
2019-01-24T07:15:43.631Z,-4.80
2019-01-24T07:16:46.679Z,-4.75
2019-01-24T07:17:49.563Z,-4.75
2019-01-24T07:18:55.192Z,-4.70
2019-01-24T07:19:59.012Z,-4.76
2019-01-24T07:21:02.269Z,-4.70
2019-01-24T07:22:05.154Z,-4.70
2019-01-24T07:23:08.068Z,-4.76
2019-01-24T07:24:17.471Z,-4.76
2019-01-24T07:25:18.588Z,-4.77
2019-01-24T07:26:21.462Z,-4.77
2019-01-24T07:27:24.793Z,-4.92
2019-01-24T07:28:27.714Z,-4.84
2019-01-24T07:29:30.613Z,-4.86
2019-01-24T07:30:39.579Z,-4.92
2019-01-24T07:31:45.277Z,-4.81
2019-01-24T07:32:48.308Z,-4.86
2019-01-24T07:33:51.502Z,-4.86
2019-01-24T07:34:54.490Z,-4.87
2019-01-24T07:36:02.101Z,-4.77
2019-01-24T07:37:01.985Z,-4.78
2019-01-24T07:38:06.267Z,-4.86
2019-01-24T07:39:09.430Z,-4.98
2019-01-24T07:40:18.714Z,-5.02
2019-01-24T07:41:23.649Z,-5.01
2019-01-24T07:42:26.788Z,-4.92
2019-01-24T07:43:29.663Z,-4.90
2019-01-24T07:44:37.852Z,-4.93
2019-01-24T07:45:40.509Z,-5.02
2019-01-24T07:46:43.786Z,-5.02
2019-01-24T07:47:46.689Z,-5.08
2019-01-24T07:48:51.703Z,-5.09
2019-01-24T07:49:57.428Z,-5.04
2019-01-24T07:51:02.322Z,-4.97
2019-01-24T07:52:07.067Z,-4.86
2019-01-24T07:53:10.597Z,-4.85
2019-01-24T07:54:13.544Z,-4.75
2019-01-24T07:55:16.974Z,-4.71
2019-01-24T07:56:19.960Z,-4.70
2019-01-24T07:57:23.313Z,-4.73
2019-01-24T07:58:26.524Z,-4.76
2019-01-24T07:59:29.453Z,-4.75
2019-01-24T08:00:32.606Z,-4.46
2019-01-24T08:01:37.717Z,-140.42
2019-01-24T08:02:40.632Z,-85.71
2019-01-24T08:03:43.569Z,-140.42
2019-01-24T08:04:49.106Z,-3.57
2019-01-24T08:05:52.781Z,-3.61
2019-01-24T08:07:02.075Z,-3.66
2019-01-24T08:08:05.214Z,-140.42
2019-01-24T08:09:08.130Z,-140.42
2019-01-24T08:10:11.008Z,-140.42
2019-01-24T08:11:15.450Z,-140.42
2019-01-24T08:12:22.180Z,-4.12
2019-01-24T08:13:25.580Z,-4.37
2019-01-24T08:14:28.486Z,-4.27
2019-01-24T08:15:31.464Z,-4.27
2019-01-24T08:16:37.298Z,-4.49
2019-01-24T08:17:42.089Z,-4.72
2019-01-24T08:18:45.068Z,-4.72
2019-01-24T08:19:48.441Z,-4.90
2019-01-24T08:20:51.958Z,-4.90
2019-01-24T08:21:54.946Z,-5.00
2019-01-24T08:22:57.812Z,-5.01
2019-01-24T08:24:02.860Z,-5.01
2019-01-24T08:25:08.256Z,-5.02
2019-01-24T08:26:14.275Z,-4.88
2019-01-24T08:27:19.418Z,-4.96
2019-01-24T08:28:22.367Z,-4.98
2019-01-24T08:29:28.909Z,-4.98
2019-01-24T08:30:31.920Z,-5.14
2019-01-24T08:31:34.899Z,-5.21
2019-01-24T08:32:38.234Z,-5.21
2019-01-24T08:33:47.816Z,-5.18
2019-01-24T08:34:52.947Z,-5.19
2019-01-24T08:35:56.798Z,-5.16
2019-01-24T08:37:00.204Z,-5.25
2019-01-24T08:38:06.168Z,-5.23
2019-01-24T08:39:11.169Z,-5.23
2019-01-24T08:40:16.014Z,-5.19
2019-01-24T08:41:18.963Z,-5.24
2019-01-24T08:42:22.265Z,-5.25
2019-01-24T08:43:25.374Z,-5.25
2019-01-24T08:44:30.072Z,-5.20
2019-01-24T08:45:34.867Z,-5.13
2019-01-24T08:46:37.784Z,-5.17
2019-01-24T08:47:40.776Z,-5.17
2019-01-24T08:48:43.801Z,-5.21
2019-01-24T08:49:46.765Z,-5.08
2019-01-24T08:50:49.785Z,-5.03
2019-01-24T08:51:52.699Z,-4.98
2019-01-24T08:52:57.236Z,-5.00
2019-01-24T08:54:00.829Z,-4.88
2019-01-24T08:55:04.634Z,-4.85
2019-01-24T08:56:07.642Z,-4.91
2019-01-24T08:57:10.649Z,-4.91
2019-01-24T08:58:32.677Z,-4.97
2019-01-24T08:59:36.123Z,-4.97
2019-01-24T09:00:39.168Z,-4.81
2019-01-24T09:01:42.202Z,-4.82
2019-01-24T09:02:46.828Z,-4.83
2019-01-24T09:03:49.910Z,-4.91
2019-01-24T09:04:53.085Z,-4.85
2019-01-24T09:05:56.159Z,-4.83
2019-01-24T09:07:02.489Z,-4.77
2019-01-24T09:08:05.530Z,-4.77
2019-01-24T09:09:08.801Z,-4.69
2019-01-24T09:10:12.453Z,-4.63
2019-01-24T09:11:17.001Z,-4.58
2019-01-24T09:12:30.238Z,-4.68
2019-01-24T09:13:34.945Z,-4.68
2019-01-24T09:14:38.955Z,-4.93
2019-01-24T09:15:41.837Z,-4.97
2019-01-24T09:16:45.115Z,-4.97
2019-01-24T09:17:48.614Z,-4.85
2019-01-24T09:18:52.529Z,-4.81
2019-01-24T09:19:57.370Z,-4.81
2019-01-24T09:21:01.499Z,-4.70
2019-01-24T09:22:11.722Z,-5.07
2019-01-24T09:23:16.285Z,-5.17
2019-01-24T09:24:19.405Z,-5.17
2019-01-24T09:25:22.768Z,-5.19
2019-01-24T09:26:25.732Z,-5.14
2019-01-24T09:27:28.930Z,-5.12
2019-01-24T09:28:35.176Z,-4.94
2019-01-24T09:29:36.991Z,-5.09
2019-01-24T09:30:41.090Z,-5.19
2019-01-24T09:31:47.564Z,-5.23
2019-01-24T09:32:52.120Z,-5.26
2019-01-24T09:33:57.335Z,-5.15
2019-01-24T09:35:00.420Z,-5.15
2019-01-24T09:36:08.151Z,-5.14
2019-01-24T09:37:11.209Z,-5.11
2019-01-24T09:38:15.679Z,-5.20
2019-01-24T09:39:20.257Z,-5.23
2019-01-24T09:40:23.227Z,-5.20
2019-01-24T09:41:28.296Z,-5.20
2019-01-24T09:42:31.335Z,-5.08
2019-01-24T09:43:36.585Z,-5.01
2019-01-24T09:44:40.130Z,-5.04
2019-01-24T09:45:47.854Z,-4.98
2019-01-24T09:46:51.765Z,-4.90
2019-01-24T09:47:56.307Z,-4.89
2019-01-24T09:48:59.338Z,-4.93
2019-01-24T09:50:02.500Z,-4.95
2019-01-24T09:51:10.369Z,-4.95
2019-01-24T09:52:21.740Z,-4.79
2019-01-24T09:53:29.745Z,-4.77
2019-01-24T09:54:38.927Z,-4.77
2019-01-24T09:55:38.566Z,-4.86
2019-01-24T09:56:46.771Z,-4.91
2019-01-24T09:57:50.400Z,-4.83
2019-01-24T09:58:53.383Z,-4.96
2019-01-24T09:59:57.758Z,-4.96
2019-01-24T10:01:02.966Z,-4.97
2019-01-24T10:02:06.036Z,-5.00
2019-01-24T10:03:10.386Z,-5.03
2019-01-24T10:04:14.294Z,-5.03
2019-01-24T10:05:17.523Z,-5.02
2019-01-24T10:06:23.016Z,-5.09
2019-01-24T10:07:26.237Z,-5.07
2019-01-24T10:08:29.201Z,-5.11
2019-01-24T10:09:32.163Z,-5.07
2019-01-24T10:10:35.559Z,-4.99
2019-01-24T10:11:41.663Z,-5.03
2019-01-24T10:12:46.095Z,-5.12
2019-01-24T10:13:48.971Z,-5.08
2019-01-24T10:14:52.018Z,-4.93
2019-01-24T10:15:55.049Z,-4.93
2019-01-24T10:16:58.318Z,-4.91
2019-01-24T10:18:02.006Z,-4.91
2019-01-24T10:19:06.866Z,-4.94
2019-01-24T10:20:09.858Z,-4.86
2019-01-24T10:21:12.859Z,-4.90
2019-01-24T10:22:15.855Z,-4.90
2019-01-24T10:23:22.109Z,-4.90
2019-01-24T10:24:26.714Z,-4.90
2019-01-24T10:25:29.594Z,-5.04
2019-01-24T10:26:34.065Z,-5.16
2019-01-24T10:27:37.080Z,-5.24
2019-01-24T10:28:43.078Z,-5.22
2019-01-24T10:29:46.460Z,-5.18
2019-01-24T10:30:55.078Z,-5.18
2019-01-24T10:31:58.072Z,-4.89
2019-01-24T10:33:01.172Z,-4.92
2019-01-24T10:34:04.157Z,-4.85
2019-01-24T10:35:07.512Z,-4.91
2019-01-24T10:36:11.237Z,-4.83
2019-01-24T10:37:14.556Z,-4.83
2019-01-24T10:38:17.640Z,-4.87
2019-01-24T10:39:20.677Z,-4.97
2019-01-24T10:40:23.598Z,-5.03
2019-01-24T10:41:26.505Z,-4.94
2019-01-24T10:42:34.101Z,-4.94
2019-01-24T10:43:37.167Z,-4.93
2019-01-24T10:44:41.185Z,-4.76
2019-01-24T10:45:46.335Z,-4.68
2019-01-24T10:46:49.370Z,-4.77
2019-01-24T10:47:52.245Z,-4.72
2019-01-24T10:48:58.165Z,-4.73
2019-01-24T10:50:01.178Z,-4.68
2019-01-24T10:51:04.144Z,-4.62
2019-01-24T10:52:09.831Z,-4.62
2019-01-24T10:53:12.766Z,-4.67
2019-01-24T10:54:15.766Z,-4.71
2019-01-24T10:55:19.301Z,-4.59
2019-01-24T10:56:22.291Z,-4.57
2019-01-24T10:57:33.352Z,-4.55
2019-01-24T10:58:36.286Z,-4.50
2019-01-24T10:59:41.242Z,-4.36
2019-01-24T11:00:44.271Z,-4.67
2019-01-24T11:01:47.717Z,-4.63
2019-01-24T11:02:52.791Z,-4.51
2019-01-24T11:03:58.140Z,-4.71
2019-01-24T11:05:02.306Z,-4.89
2019-01-24T11:06:07.915Z,-5.15
2019-01-24T11:07:11.089Z,-5.06
2019-01-24T11:08:15.515Z,-4.82
2019-01-24T11:09:24.578Z,-4.90
2019-01-24T11:10:29.847Z,-4.91
2019-01-24T11:11:33.592Z,-4.91
2019-01-24T11:12:36.767Z,-4.90
2019-01-24T11:13:41.187Z,-4.98
2019-01-24T11:14:46.044Z,-5.02
2019-01-24T11:15:51.235Z,-4.85
2019-01-24T11:16:56.990Z,-4.83
2019-01-24T11:17:59.993Z,-4.74
2019-01-24T11:19:03.359Z,-4.74
2019-01-24T11:20:06.349Z,-4.83
2019-01-24T11:21:09.322Z,-4.66
2019-01-24T11:22:12.723Z,-4.73
2019-01-24T11:23:15.718Z,-4.85
2019-01-24T11:24:19.190Z,-4.91
2019-01-24T11:25:22.956Z,-5.02
2019-01-24T11:26:31.083Z,-4.99
2019-01-24T11:27:35.632Z,-4.78
2019-01-24T11:28:38.661Z,-4.78
2019-01-24T11:29:41.745Z,-4.80
2019-01-24T11:42:51.605Z,-4.80
2019-01-24T11:43:54.566Z,-4.80
2019-01-24T11:44:58.063Z,-4.69
2019-01-24T11:46:01.580Z,-4.69
2019-01-24T11:47:09.262Z,-4.78
2019-01-24T11:48:12.498Z,-4.78
2019-01-24T11:49:15.486Z,-4.72
2019-01-24T11:50:24.857Z,-4.90
2019-01-24T11:51:32.173Z,-4.90
2019-01-24T11:52:33.331Z,-4.90
2019-01-24T11:53:36.207Z,-4.88
2019-01-24T11:54:42.523Z,-4.88
2019-01-24T11:55:45.646Z,-4.92
2019-01-24T11:56:51.111Z,-4.92
2019-01-24T11:57:54.218Z,-4.87
2019-01-24T11:58:57.460Z,-4.54
2019-01-24T12:00:03.273Z,-4.54
2019-01-24T12:01:06.656Z,-4.61
2019-01-24T12:02:17.653Z,-4.84
2019-01-24T12:03:21.643Z,-5.00
2019-01-24T12:04:25.062Z,-4.97
2019-01-24T12:05:27.966Z,-4.94
2019-01-24T12:06:32.085Z,-4.94
2019-01-24T12:07:59.779Z,-4.88
2019-01-24T12:09:04.883Z,-4.73
2019-01-24T12:10:10.590Z,-4.71
2019-01-24T12:11:13.581Z,-4.71
2019-01-24T12:12:16.499Z,-4.66
2019-01-24T12:13:19.428Z,-4.70
2019-01-24T12:14:22.837Z,-4.70
2019-01-24T12:15:26.280Z,-4.63
2019-01-24T12:16:29.462Z,-4.63
2019-01-24T12:17:39.884Z,-4.59
2019-01-24T12:18:42.779Z,-4.53
2019-01-24T12:19:48.660Z,-4.53
2019-01-24T12:20:55.078Z,-4.73
2019-01-24T12:22:00.821Z,-4.79
2019-01-24T12:23:03.836Z,-4.86
2019-01-24T12:24:09.535Z,-4.83
2019-01-24T12:25:12.408Z,-4.83
2019-01-24T12:26:15.668Z,-4.58
2019-01-24T12:27:22.398Z,-4.34
2019-01-24T12:28:25.322Z,-4.21
2019-01-24T12:29:28.216Z,-4.38
2019-01-24T12:30:34.258Z,-4.58
2019-01-24T12:31:37.271Z,-4.58
2019-01-24T12:32:40.264Z,-4.74
2019-01-24T12:33:45.287Z,-4.61
2019-01-24T12:34:51.600Z,-4.71
2019-01-24T12:35:54.489Z,-4.73
2019-01-24T12:36:57.414Z,-4.83
2019-01-24T12:38:09.163Z,-4.68
2019-01-24T12:39:16.067Z,-4.68
2019-01-24T12:40:26.646Z,-4.66
2019-01-24T12:41:30.784Z,-4.60
2019-01-24T12:42:33.737Z,-4.60
2019-01-24T12:43:38.222Z,-4.72
2019-01-24T12:44:44.110Z,-4.63
2019-01-24T12:45:49.864Z,-4.63
2019-01-24T12:46:53.228Z,-4.61
2019-01-24T12:47:58.322Z,-4.50
2019-01-24T12:49:02.740Z,-4.47
2019-01-24T12:50:05.672Z,-4.47
2019-01-24T12:51:08.641Z,-4.47
2019-01-24T12:52:11.657Z,-4.79
2019-01-24T12:53:15.034Z,-4.79
2019-01-24T12:54:17.946Z,-4.96
2019-01-24T12:55:20.896Z,-5.06
2019-01-24T12:56:23.924Z,-5.06
2019-01-24T12:57:27.000Z,-4.96
2019-01-24T12:58:29.893Z,-4.96
2019-01-24T12:59:33.565Z,-4.81
2019-01-24T13:00:36.543Z,-4.80
2019-01-24T13:01:39.528Z,-4.71
2019-01-24T13:02:45.312Z,-4.60
2019-01-24T13:03:53.424Z,-4.60
2019-01-24T13:04:56.387Z,-4.56
2019-01-24T13:05:59.658Z,-4.68
2019-01-24T13:07:02.711Z,-4.68
2019-01-24T13:08:09.181Z,-4.50
2019-01-24T13:09:12.045Z,-4.50
2019-01-24T13:10:14.958Z,-4.34
2019-01-24T13:11:18.027Z,-4.34
2019-01-24T13:12:20.950Z,-4.32
2019-01-24T13:13:26.519Z,-4.39
2019-01-24T13:14:29.584Z,-4.50
2019-01-24T13:15:34.985Z,-4.36
2019-01-24T13:16:38.097Z,-4.23
2019-01-24T13:17:42.086Z,-4.16
2019-01-24T13:19:18.492Z,-4.36
2019-01-24T13:19:52.718Z,-4.23
2019-01-24T13:20:55.715Z,-4.23
2019-01-24T13:22:00.256Z,-4.13
2019-01-24T13:23:04.932Z,-4.13
2019-01-24T13:24:07.850Z,-4.20
2019-01-24T13:25:10.773Z,-4.20
2019-01-24T13:26:13.667Z,-4.16
2019-01-24T13:27:16.585Z,-4.32
2019-01-24T13:28:22.433Z,-4.32
2019-01-24T13:29:28.219Z,-4.32
2019-01-24T13:30:35.423Z,-4.31
2019-01-24T13:31:38.355Z,-4.26
2019-01-24T13:32:41.740Z,-4.34
2019-01-24T13:33:44.875Z,-4.34
2019-01-24T13:34:47.869Z,-4.39
2019-01-24T13:35:51.075Z,-4.38
2019-01-24T13:36:54.064Z,-4.40
2019-01-24T13:37:59.608Z,-4.44
2019-01-24T13:39:05.949Z,-4.36
2019-01-24T13:40:10.058Z,-4.36
2019-01-24T13:41:13.333Z,-4.22
2019-01-24T13:42:16.340Z,-4.22
2019-01-24T13:43:34.059Z,-4.11
2019-01-24T13:44:37.230Z,-4.04
2019-01-24T13:45:43.329Z,-4.07
2019-01-24T13:46:46.267Z,-4.11
2019-01-24T13:47:49.220Z,-4.22
2019-01-24T13:48:58.976Z,-4.24
2019-01-24T13:50:01.909Z,-4.24
2019-01-24T13:51:09.949Z,-4.34
2019-01-24T13:52:16.739Z,-4.22
2019-01-24T13:53:19.601Z,-4.17
2019-01-24T13:54:22.514Z,-4.19
2019-01-24T13:55:25.411Z,-4.14
2019-01-24T13:56:28.412Z,-4.07
2019-01-24T13:57:31.283Z,-4.09
2019-01-24T13:58:34.225Z,-4.00
2019-01-24T13:59:37.317Z,-3.99
2019-01-24T14:00:40.196Z,-3.99
2019-01-24T14:01:43.216Z,-4.02
2019-01-24T14:02:50.266Z,-4.02
2019-01-24T14:03:53.643Z,-4.04
2019-01-24T14:05:02.189Z,-4.49
2019-01-24T14:06:07.596Z,-4.49
2019-01-24T14:07:10.702Z,-4.52